Time;durP1;ratioP1;P1;durP2;ratioP2;P2;SDS_P1;SDS_P2;PMS_P1;PMS_P2;Temp;Humidity;BMP_temperature;BMP_pressure;BME280_temperature;BME280_humidity;BME280_pressure;Samples;Min_cycle;Max_cycle;Signal;HPM_P1;HPM_P2
2021/12/13 00:00:16;;;;;;;;;;;;;;;28.36;21.10;98238.00;169026;29;1017;-48
2021/12/13 00:00:23;;;;;;;;;;;;;;;28.33;21.21;98238.25;168697;29;1021;-49
2021/12/13 00:00:37;;;;;;;;;;;;;;;28.30;21.46;98235.84;169676;29;1004;-49
2021/12/13 00:00:45;;;;;;;;;;;;;;;28.27;21.24;98239.53;170057;29;851;-50
2021/12/13 00:00:58;;;;;;;;;;;;;;;28.29;21.26;98242.09;168179;29;4373;-49
2021/12/13 00:01:03;;;;;;;;;;;;;;;28.31;21.48;98243.69;169197;29;1497;-49
2021/12/13 00:01:11;;;;;;;;;;;;;;;28.30;21.45;98241.16;169714;29;1025;-49
2021/12/13 00:01:19;;;;;;;;;;;;;;;28.29;21.46;98237.66;169269;29;882;-49
2021/12/13 00:01:24;;;;;;;;;;;;;;;28.31;21.17;98235.72;170656;29;1126;-49
2021/12/13 00:01:29;;;;;;;;;;;;;;;28.33;21.36;98240.91;170696;29;803;-49
2021/12/13 00:01:36;;;;;;;;;;;;;;;28.34;21.07;98242.56;170477;29;1075;-50
2021/12/13 00:01:44;;;;;;;;;;;;;;;28.33;21.29;98235.59;170727;29;1187;-49
2021/12/13 00:01:55;;;;;;;;;;;;;;;28.33;21.13;98240.91;169846;29;988;-49
2021/12/13 00:02:04;;;;;;;;;;;;;;;28.33;21.26;98241.72;169157;29;1209;-49
2021/12/13 00:02:15;;;;;;;;;;;;;;;28.34;21.19;98242.56;169209;29;905;-50
2021/12/13 00:02:26;;;;;;;;;;;;;;;28.36;21.35;98241.50;169165;29;1152;-49
2021/12/13 00:02:34;;;;;;;;;;;;;;;28.34;21.05;98238.13;169199;29;1194;-49
2021/12/13 00:02:45;;;;;;;;;;;;;;;28.35;21.41;98238.97;169392;29;878;-50
2021/12/13 00:02:59;;;;;;;;;;;;;;;28.34;21.36;98238.13;168590;29;842;-49
2021/12/13 00:03:31;;;;;;;;;;;;;;;28.34;21.12;98242.56;168364;29;1774;-50
2021/12/13 00:04:02;;;;;;;;;;;;;;;28.34;21.41;98237.28;169149;29;973;-49
2021/12/13 00:04:07;;;;;;;;;;;;;;;28.33;21.12;98244.38;169027;29;1085;-50
2021/12/13 00:04:17;;;;;;;;;;;;;;;28.34;21.19;98237.28;169104;29;1346;-49
2021/12/13 00:04:24;;;;;;;;;;;;;;;28.37;21.10;98242.34;169174;29;874;-49
2021/12/13 00:04:35;;;;;;;;;;;;;;;28.36;21.11;98240.66;169208;29;1211;-49
2021/12/13 00:04:42;;;;;;;;;;;;;;;28.33;21.07;98243.53;168589;29;1149;-50
2021/12/13 00:04:49;;;;;;;;;;;;;;;28.34;21.37;98237.28;168686;29;4301;-49
2021/12/13 00:04:56;;;;;;;;;;;;;;;28.36;21.44;98238.00;169137;29;1104;-49
2021/12/13 00:05:06;;;;;;;;;;;;;;;28.35;21.08;98237.16;169676;29;1046;-49
2021/12/13 00:05:24;;;;;;;;;;;;;;;28.34;21.00;98239.94;169187;29;850;-49
2021/12/13 00:05:38;;;;;;;;;;;;;;;28.34;21.42;98240.75;170303;29;1155;-49
2021/12/13 00:05:45;;;;;;;;;;;;;;;28.33;21.17;98238.25;169987;29;1171;-49
2021/12/13 00:05:52;;;;;;;;;;;;;;;28.33;21.39;98240.91;169963;29;858;-49
2021/12/13 00:05:59;;;;;;;;;;;;;;;28.33;21.29;98239.09;169333;29;787;-51
2021/12/13 00:06:09;;;;;;;;;;;;;;;28.35;21.28;98242.44;169714;29;1012;-49
2021/12/13 00:06:19;;;;;;;;;;;;;;;28.33;21.24;98238.25;169994;29;972;-49
2021/12/13 00:06:30;;;;;;;;;;;;;;;28.34;21.42;98242.56;170718;29;802;-50
2021/12/13 00:06:40;;;;;;;;;;;;;;;28.34;21.23;98239.94;170684;29;890;-49
2021/12/13 00:06:55;;;;;;;;;;;;;;;28.34;21.06;98239.94;169957;29;1033;-49
2021/12/13 00:07:03;;;;;;;;;;;;;;;28.33;21.37;98241.72;170406;29;1067;-48
2021/12/13 00:07:19;;;;;;;;;;;;;;;28.31;21.09;98243.69;170251;28;1687;-48
2021/12/13 00:07:26;;;;;;;;;;;;;;;28.33;21.12;98233.78;170611;29;1064;-49
2021/12/13 00:07:32;;;;;;;;;;;;;;;28.36;21.45;98240.66;170580;29;846;-48
2021/12/13 00:07:38;;;;;;;;;;;;;;;28.34;21.39;98243.41;170566;29;1111;-49
2021/12/13 00:07:44;;;;;;;;;;;;;;;28.32;21.21;98240.06;170690;29;1345;-49
2021/12/13 00:07:57;;;;;;;;;;;;;;;28.33;21.01;98235.59;170436;29;1139;-49
2021/12/13 00:08:04;;;;;;;;;;;;;;;28.36;21.22;98243.31;169747;29;1087;-48
2021/12/13 00:08:10;;;;;;;;;;;;;;;28.38;21.42;98243.19;169973;29;879;-49
2021/12/13 00:08:26;;;;;;;;;;;;;;;28.38;21.13;98237.88;170164;29;1079;-50
2021/12/13 00:08:32;;;;;;;;;;;;;;;28.36;21.35;98245.97;171194;28;1144;-49
2021/12/13 00:08:39;;;;;;;;;;;;;;;28.36;21.00;98243.31;171180;28;1238;-49
2021/12/13 00:08:47;;;;;;;;;;;;;;;28.35;21.19;98242.44;170757;28;4303;-49
2021/12/13 00:08:54;;;;;;;;;;;;;;;28.36;21.42;98233.56;171238;28;861;-49
2021/12/13 00:09:00;;;;;;;;;;;;;;;28.36;21.33;98232.72;171343;28;778;-48
2021/12/13 00:09:07;;;;;;;;;;;;;;;28.32;21.14;98237.41;170442;29;996;-49
2021/12/13 00:09:13;;;;;;;;;;;;;;;28.34;21.18;98240.75;170610;28;1358;-50
2021/12/13 00:09:23;;;;;;;;;;;;;;;28.36;21.24;98238.84;170467;29;810;-49
2021/12/13 00:09:28;;;;;;;;;;;;;;;28.36;21.16;98235.38;169948;29;1035;-49
2021/12/13 00:09:34;;;;;;;;;;;;;;;28.36;21.42;98245.97;170370;29;917;-48
2021/12/13 00:09:40;;;;;;;;;;;;;;;28.36;21.23;98235.38;169925;29;1183;-49
2021/12/13 00:09:45;;;;;;;;;;;;;;;28.37;21.16;98242.34;169909;29;1048;-48
2021/12/13 00:09:51;;;;;;;;;;;;;;;28.37;21.40;98242.34;169855;29;1139;-49
2021/12/13 00:09:57;;;;;;;;;;;;;;;28.37;21.38;98242.34;169880;29;873;-50
2021/12/13 00:10:05;;;;;;;;;;;;;;;28.35;21.32;98236.31;169571;29;1187;-49
2021/12/13 00:10:12;;;;;;;;;;;;;;;28.38;21.13;98235.22;169758;29;1155;-49
2021/12/13 00:10:18;;;;;;;;;;;;;;;28.38;21.36;98236.06;169196;29;807;-49
2021/12/13 00:10:28;;;;;;;;;;;;;;;28.39;21.17;98242.22;169546;29;1151;-49
2021/12/13 00:10:54;;;;;;;;;;;;;;;28.42;21.33;98236.66;169150;29;1040;-48
2021/12/13 00:11:18;;;;;;;;;;;;;;;28.44;21.08;98237.38;168384;29;1667;-48
2021/12/13 00:11:24;;;;;;;;;;;;;;;28.43;21.03;98241.84;169796;29;1113;-49
2021/12/13 00:11:32;;;;;;;;;;;;;;;28.43;21.25;98233.03;170590;29;1027;-49
2021/12/13 00:11:39;;;;;;;;;;;;;;;28.40;21.03;98244.75;170933;28;806;-49
2021/12/13 00:11:45;;;;;;;;;;;;;;;28.40;21.17;98236.78;171150;28;1032;-49
2021/12/13 00:11:59;;;;;;;;;;;;;;;28.41;21.34;98240.28;171193;28;846;-49
2021/12/13 00:12:04;;;;;;;;;;;;;;;28.40;21.36;98236.78;170948;28;1218;-50
2021/12/13 00:12:09;;;;;;;;;;;;;;;28.41;21.22;98241.13;170842;28;1189;-49
2021/12/13 00:12:21;;;;;;;;;;;;;;;28.40;21.21;98242.09;170509;29;956;-49
2021/12/13 00:12:33;;;;;;;;;;;;;;;28.40;21.38;98239.44;171283;28;1016;-49
2021/12/13 00:12:41;;;;;;;;;;;;;;;28.38;21.10;98237.88;171285;28;853;-48
2021/12/13 00:12:59;;;;;;;;;;;;;;;28.39;21.11;98242.22;170692;28;4440;-48
2021/12/13 00:13:06;;;;;;;;;;;;;;;28.38;21.35;98241.38;171063;28;961;-48
2021/12/13 00:13:13;;;;;;;;;;;;;;;28.39;21.13;98229.81;171136;28;1000;-49
2021/12/13 00:13:21;;;;;;;;;;;;;;;28.39;21.12;98240.41;171104;28;1126;-49
2021/12/13 00:13:36;;;;;;;;;;;;;;;28.39;21.28;98240.41;171289;28;858;-49
2021/12/13 00:13:42;;;;;;;;;;;;;;;28.38;21.07;98238.72;169249;29;986;-50
2021/12/13 00:13:50;;;;;;;;;;;;;;;28.39;21.34;98240.41;169718;29;1397;-48
2021/12/13 00:13:56;;;;;;;;;;;;;;;28.36;21.20;98240.66;169812;29;1100;-50
2021/12/13 00:14:06;;;;;;;;;;;;;;;28.30;21.20;98225.22;169854;29;877;-49
2021/12/13 00:14:27;;;;;;;;;;;;;;;28.38;21.22;98241.38;168586;29;969;-49
2021/12/13 00:14:33;;;;;;;;;;;;;;;28.39;20.99;98239.56;168129;29;1450;-48
2021/12/13 00:14:45;;;;;;;;;;;;;;;28.36;21.43;98236.22;168678;29;1446;-48
2021/12/13 00:14:51;;;;;;;;;;;;;;;28.35;21.35;98233.66;169540;29;823;-49
2021/12/13 00:14:56;;;;;;;;;;;;;;;28.38;21.34;98240.53;169905;29;1191;-50
2021/12/13 00:15:04;;;;;;;;;;;;;;;28.39;21.22;98237.75;170391;28;1337;-49
2021/12/13 00:15:12;;;;;;;;;;;;;;;28.38;21.04;98238.72;170274;29;873;-50
2021/12/13 00:15:22;;;;;;;;;;;;;;;28.38;21.09;98244.03;169214;29;969;-49
2021/12/13 00:15:32;;;;;;;;;;;;;;;28.40;21.34;98236.78;169950;29;984;-49
2021/12/13 00:15:44;;;;;;;;;;;;;;;28.41;21.23;98243.78;169359;29;886;-49
2021/12/13 00:15:51;;;;;;;;;;;;;;;28.38;21.30;98240.53;170610;29;774;-49
2021/12/13 00:15:58;;;;;;;;;;;;;;;28.40;21.12;98242.09;169974;29;819;-48
2021/12/13 00:16:03;;;;;;;;;;;;;;;28.42;21.04;98240.16;170123;28;1481;-49
2021/12/13 00:16:09;;;;;;;;;;;;;;;28.42;21.37;98237.50;171117;28;892;-49
2021/12/13 00:16:14;;;;;;;;;;;;;;;28.42;21.40;98234.84;171287;28;977;-49
2021/12/13 00:16:23;;;;;;;;;;;;;;;28.41;21.13;98235.81;171160;28;1222;-49
2021/12/13 00:16:33;;;;;;;;;;;;;;;28.42;21.22;98241.97;171190;28;1147;-49
2021/12/13 00:16:39;;;;;;;;;;;;;;;28.42;21.08;98237.50;170665;29;503;-48
2021/12/13 00:16:46;;;;;;;;;;;;;;;28.41;21.11;98235.81;170879;28;4419;-49
2021/12/13 00:17:01;;;;;;;;;;;;;;;28.41;21.23;98230.50;170544;28;1202;-50
2021/12/13 00:17:06;;;;;;;;;;;;;;;28.41;21.28;98232.31;169668;29;1140;-49
2021/12/13 00:17:13;;;;;;;;;;;;;;;28.41;21.27;98233.16;169973;29;878;-49
2021/12/13 00:17:23;;;;;;;;;;;;;;;28.42;21.29;98234.84;169203;29;1154;-48
2021/12/13 00:17:30;;;;;;;;;;;;;;;28.37;21.22;98237.06;170325;29;1144;-50
2021/12/13 00:17:36;;;;;;;;;;;;;;;28.37;21.30;98234.41;171058;28;1239;-49
2021/12/13 00:17:46;;;;;;;;;;;;;;;28.42;21.30;98239.31;170707;28;1106;-49
2021/12/13 00:17:51;;;;;;;;;;;;;;;28.43;21.05;98236.53;171227;28;1083;-49
2021/12/13 00:17:56;;;;;;;;;;;;;;;28.40;21.31;98236.78;171280;28;971;-50
2021/12/13 00:18:03;;;;;;;;;;;;;;;28.41;21.29;98238.47;170965;28;1070;-49
2021/12/13 00:18:08;;;;;;;;;;;;;;;28.41;21.02;98235.81;170616;29;853;-49
2021/12/13 00:18:18;;;;;;;;;;;;;;;28.40;21.06;98236.78;171068;28;1717;-49
2021/12/13 00:18:25;;;;;;;;;;;;;;;28.38;21.19;98233.44;172064;28;794;-50
2021/12/13 00:18:32;;;;;;;;;;;;;;;28.36;21.05;98235.38;170097;28;846;-49
2021/12/13 00:18:39;;;;;;;;;;;;;;;28.42;21.11;98241.97;171167;28;1202;-49
2021/12/13 00:18:45;;;;;;;;;;;;;;;28.41;21.12;98237.63;171195;28;1087;-48
2021/12/13 00:18:53;;;;;;;;;;;;;;;28.41;21.40;98234.97;170754;28;1173;-48
2021/12/13 00:19:01;;;;;;;;;;;;;;;28.42;21.28;98236.66;170494;29;901;-48
2021/12/13 00:19:08;;;;;;;;;;;;;;;28.41;21.09;98238.47;170383;29;893;-49
2021/12/13 00:19:15;;;;;;;;;;;;;;;28.41;21.12;98234.97;170578;28;1158;-49
2021/12/13 00:19:21;;;;;;;;;;;;;;;28.40;21.19;98234.13;171105;28;842;-48
2021/12/13 00:19:30;;;;;;;;;;;;;;;28.39;21.09;98229.81;171291;28;1213;-49
2021/12/13 00:19:37;;;;;;;;;;;;;;;28.42;21.28;98236.66;170580;28;1056;-50
2021/12/13 00:19:44;;;;;;;;;;;;;;;28.43;21.37;98236.53;170583;29;794;-48
2021/12/13 00:19:56;;;;;;;;;;;;;;;28.46;21.07;98238.13;170400;29;1186;-49
2021/12/13 00:20:13;;;;;;;;;;;;;;;28.48;20.95;98233.53;169823;29;1072;-49
2021/12/13 00:20:44;;;;;;;;;;;;;;;28.47;21.30;98232.69;169807;29;794;-49
2021/12/13 00:20:51;;;;;;;;;;;;;;;28.43;20.99;98241.84;169466;29;4418;-49
2021/12/13 00:20:59;;;;;;;;;;;;;;;28.42;21.34;98237.50;169813;29;1021;-49
2021/12/13 00:21:07;;;;;;;;;;;;;;;28.42;21.05;98241.97;169107;29;859;-49
2021/12/13 00:21:19;;;;;;;;;;;;;;;28.41;21.30;98235.81;169654;29;1152;-48
2021/12/13 00:21:28;;;;;;;;;;;;;;;28.42;21.11;98234.00;169732;29;1029;-49
2021/12/13 00:21:37;;;;;;;;;;;;;;;28.38;20.90;98238.72;169825;29;1040;-49
2021/12/13 00:21:44;;;;;;;;;;;;;;;28.38;21.13;98232.59;169923;29;842;-48
2021/12/13 00:21:51;;;;;;;;;;;;;;;28.38;21.25;98236.06;170116;29;1158;-50
2021/12/13 00:21:57;;;;;;;;;;;;;;;28.37;21.22;98237.06;170563;28;1252;-49
2021/12/13 00:22:08;;;;;;;;;;;;;;;28.39;21.29;98234.28;169854;29;1609;-49
2021/12/13 00:22:19;;;;;;;;;;;;;;;28.42;21.09;98234.84;170576;29;1040;-48
2021/12/13 00:22:32;;;;;;;;;;;;;;;28.42;20.98;98234.84;170590;29;1330;-49
2021/12/13 00:22:39;;;;;;;;;;;;;;;28.39;21.12;98235.09;169999;29;802;-48
2021/12/13 00:22:45;;;;;;;;;;;;;;;28.39;21.16;98235.09;170491;29;1099;-48
2021/12/13 00:22:51;;;;;;;;;;;;;;;28.38;21.32;98235.22;170657;29;1041;-49
2021/12/13 00:22:58;;;;;;;;;;;;;;;28.39;21.12;98232.47;170515;29;1110;-49
2021/12/13 00:23:14;;;;;;;;;;;;;;;28.40;21.05;98238.59;170469;29;1100;-48
2021/12/13 00:23:26;;;;;;;;;;;;;;;28.42;21.30;98234.00;169900;29;1159;-50
2021/12/13 00:23:33;;;;;;;;;;;;;;;28.41;21.00;98238.47;169299;29;1180;-49
2021/12/13 00:23:44;;;;;;;;;;;;;;;28.44;21.16;98234.72;170667;29;1033;-50
2021/12/13 00:23:57;;;;;;;;;;;;;;;28.43;21.04;98236.53;169169;29;1197;-50
2021/12/13 00:24:04;;;;;;;;;;;;;;;28.40;21.21;98239.44;169904;29;861;-49
2021/12/13 00:24:23;;;;;;;;;;;;;;;28.39;21.15;98236.91;170763;28;1851;-49
2021/12/13 00:24:31;;;;;;;;;;;;;;;28.41;21.16;98235.81;170097;29;873;-49
2021/12/13 00:24:37;;;;;;;;;;;;;;;28.41;21.09;98235.81;171292;28;845;-49
2021/12/13 00:24:44;;;;;;;;;;;;;;;28.43;21.17;98233.88;171320;28;1094;-49
2021/12/13 00:24:49;;;;;;;;;;;;;;;28.41;21.36;98233.16;171612;28;4228;-50
2021/12/13 00:24:54;;;;;;;;;;;;;;;28.40;21.03;98230.66;171709;28;1170;-49
2021/12/13 00:25:06;;;;;;;;;;;;;;;28.39;21.03;98236.91;171198;28;810;-49
2021/12/13 00:25:13;;;;;;;;;;;;;;;28.39;21.17;98239.56;171263;28;960;-50
2021/12/13 00:25:19;;;;;;;;;;;;;;;28.38;21.36;98238.72;171477;28;1186;-49
2021/12/13 00:25:25;;;;;;;;;;;;;;;28.39;21.36;98236.91;171991;28;1046;-49
2021/12/13 00:25:31;;;;;;;;;;;;;;;28.38;21.41;98238.72;171741;28;1098;-49
2021/12/13 00:25:37;;;;;;;;;;;;;;;28.33;21.23;98230.28;171965;28;940;-49
2021/12/13 00:25:43;;;;;;;;;;;;;;;28.39;21.03;98226.31;171707;28;1199;-49
2021/12/13 00:25:49;;;;;;;;;;;;;;;28.38;21.03;98233.44;171979;28;960;-49
2021/12/13 00:25:57;;;;;;;;;;;;;;;28.38;21.04;98236.06;171762;28;1225;-49
2021/12/13 00:26:03;;;;;;;;;;;;;;;28.38;21.31;98235.22;171782;28;889;-50
2021/12/13 00:26:08;;;;;;;;;;;;;;;28.36;21.28;98236.22;171805;28;1149;-49
2021/12/13 00:26:19;;;;;;;;;;;;;;;28.38;21.30;98232.59;171230;28;909;-48
2021/12/13 00:26:32;;;;;;;;;;;;;;;28.39;21.09;98236.91;170657;29;826;-49
2021/12/13 00:26:40;;;;;;;;;;;;;;;28.41;21.04;98234.97;170660;29;961;-49
2021/12/13 00:26:46;;;;;;;;;;;;;;;28.39;21.30;98237.75;170366;28;1064;-49
2021/12/13 00:27:01;;;;;;;;;;;;;;;28.39;21.01;98235.09;170612;28;1261;-49
2021/12/13 00:27:06;;;;;;;;;;;;;;;28.41;21.08;98238.47;169916;29;1162;-49
2021/12/13 00:27:13;;;;;;;;;;;;;;;28.40;21.31;98235.94;169167;29;1410;-47
2021/12/13 00:27:18;;;;;;;;;;;;;;;28.41;21.04;98232.31;169270;29;1347;-49
2021/12/13 00:27:26;;;;;;;;;;;;;;;28.40;21.31;98236.78;170525;29;798;-49
2021/12/13 00:27:31;;;;;;;;;;;;;;;28.40;20.99;98228.00;169334;29;811;-49
2021/12/13 00:27:41;;;;;;;;;;;;;;;28.41;21.13;98237.63;170700;29;853;-49
2021/12/13 00:27:51;;;;;;;;;;;;;;;28.41;21.11;98237.63;169803;29;930;-49
2021/12/13 00:28:17;;;;;;;;;;;;;;;28.38;21.10;98232.59;169938;29;826;-49
2021/12/13 00:28:23;;;;;;;;;;;;;;;28.38;21.06;98241.38;169752;29;858;-49
2021/12/13 00:28:31;;;;;;;;;;;;;;;28.39;21.23;98240.41;169680;29;1111;-49
2021/12/13 00:28:38;;;;;;;;;;;;;;;28.39;21.04;98240.41;169880;29;1159;-49
2021/12/13 00:28:43;;;;;;;;;;;;;;;28.38;21.06;98232.59;168796;29;4316;-49
2021/12/13 00:28:49;;;;;;;;;;;;;;;28.39;21.37;98236.91;169160;29;1116;-49
2021/12/13 00:28:54;;;;;;;;;;;;;;;28.39;21.03;98239.56;169243;29;925;-49
2021/12/13 00:28:59;;;;;;;;;;;;;;;28.39;21.06;98237.75;168990;29;1126;-50
2021/12/13 00:29:11;;;;;;;;;;;;;;;28.39;20.96;98231.63;169584;29;1346;-49
2021/12/13 00:29:20;;;;;;;;;;;;;;;28.39;21.17;98235.09;169195;29;1079;-49
2021/12/13 00:29:30;;;;;;;;;;;;;;;28.36;21.06;98233.56;169379;29;1163;-49
2021/12/13 00:29:41;;;;;;;;;;;;;;;28.38;21.36;98228.13;169868;29;901;-49
2021/12/13 00:29:54;;;;;;;;;;;;;;;28.42;21.08;98236.66;168962;29;870;-50
2021/12/13 00:29:59;;;;;;;;;;;;;;;28.39;21.32;98234.28;169764;28;1023;-47
2021/12/13 00:30:07;;;;;;;;;;;;;;;28.39;21.29;98234.28;170410;28;1299;-50
2021/12/13 00:30:30;;;;;;;;;;;;;;;28.39;21.07;98234.28;170560;28;1242;-48
2021/12/13 00:30:41;;;;;;;;;;;;;;;28.38;21.07;98235.22;171255;28;1159;-50
2021/12/13 00:30:53;;;;;;;;;;;;;;;28.37;21.41;98234.41;170678;28;1103;-49
2021/12/13 00:31:03;;;;;;;;;;;;;;;28.35;21.35;98242.44;171073;28;1008;-49
2021/12/13 00:31:15;;;;;;;;;;;;;;;28.34;21.18;98243.41;170478;29;950;-49
2021/12/13 00:31:25;;;;;;;;;;;;;;;28.34;21.35;98235.47;170642;29;913;-49
2021/12/13 00:31:36;;;;;;;;;;;;;;;28.31;21.09;98238.38;171029;28;877;-49
2021/12/13 00:32:02;;;;;;;;;;;;;;;28.31;21.18;98234.88;171094;28;870;-49
2021/12/13 00:32:13;;;;;;;;;;;;;;;28.30;21.38;98238.50;171269;28;806;-49
2021/12/13 00:32:20;;;;;;;;;;;;;;;28.30;21.42;98236.69;170497;29;929;-49
2021/12/13 00:32:37;;;;;;;;;;;;;;;28.28;21.42;98245.69;170982;28;1495;-49
2021/12/13 00:33:08;;;;;;;;;;;;;;;28.26;21.27;98237.00;170164;28;4288;-54
2021/12/13 00:33:17;;;;;;;;;;;;;;;28.22;21.36;98239.06;169183;29;787;-50
2021/12/13 00:33:40;;;;;;;;;;;;;;;28.26;21.18;98240.50;169449;29;1149;-50
2021/12/13 00:34:05;;;;;;;;;;;;;;;28.28;21.22;98237.72;169560;29;1113;-48
2021/12/13 00:34:29;;;;;;;;;;;;;;;28.27;21.44;98238.69;170983;28;1186;-49
2021/12/13 00:34:41;;;;;;;;;;;;;;;28.26;21.25;98235.19;171094;28;1202;-48
2021/12/13 00:34:48;;;;;;;;;;;;;;;28.22;21.36;98241.72;171013;28;1370;-50
2021/12/13 00:34:56;;;;;;;;;;;;;;;28.17;21.47;98241.22;171260;28;1028;-49
2021/12/13 00:35:04;;;;;;;;;;;;;;;28.20;21.41;98245.44;171400;28;1130;-49
2021/12/13 00:35:09;;;;;;;;;;;;;;;28.20;21.57;98234.81;170549;28;1259;-48
2021/12/13 00:35:16;;;;;;;;;;;;;;;28.20;21.23;98230.41;170502;29;786;-49
2021/12/13 00:35:22;;;;;;;;;;;;;;;28.19;21.59;98230.50;171135;28;1104;-49
2021/12/13 00:35:33;;;;;;;;;;;;;;;28.19;21.56;98243.75;171200;28;948;-49
2021/12/13 00:35:43;;;;;;;;;;;;;;;28.21;21.21;98236.53;171274;28;1043;-49
2021/12/13 00:35:52;;;;;;;;;;;;;;;28.21;21.28;98239.19;172537;28;1283;-49
2021/12/13 00:36:01;;;;;;;;;;;;;;;28.23;21.48;98240.75;171142;28;960;-49
2021/12/13 00:36:12;;;;;;;;;;;;;;;28.22;21.55;98239.06;171491;28;1263;-49
2021/12/13 00:36:37;;;;;;;;;;;;;;;28.24;21.14;98246.91;171850;28;1090;-49
2021/12/13 00:36:45;;;;;;;;;;;;;;;28.24;21.31;98237.13;171509;28;945;-49
2021/12/13 00:36:53;;;;;;;;;;;;;;;28.23;21.22;98243.41;170720;28;4313;-49
2021/12/13 00:37:02;;;;;;;;;;;;;;;28.18;21.50;98227.00;171785;28;806;-49
2021/12/13 00:37:09;;;;;;;;;;;;;;;28.28;21.38;98243.03;171160;28;1511;-49
2021/12/13 00:37:16;;;;;;;;;;;;;;;28.24;21.23;98230.97;171574;28;875;-49
2021/12/13 00:37:25;;;;;;;;;;;;;;;28.23;21.26;98237.25;171806;28;844;-49
2021/12/13 00:37:31;;;;;;;;;;;;;;;28.26;21.54;98240.50;171583;28;1118;-48
2021/12/13 00:37:38;;;;;;;;;;;;;;;28.26;21.45;98237.00;171705;28;1023;-49
2021/12/13 00:37:44;;;;;;;;;;;;;;;28.26;21.19;98242.31;171756;28;1388;-49
2021/12/13 00:37:50;;;;;;;;;;;;;;;28.27;21.50;98236.03;171954;28;1015;-49
2021/12/13 00:37:57;;;;;;;;;;;;;;;28.28;21.17;98241.25;171833;28;1154;-48
2021/12/13 00:38:03;;;;;;;;;;;;;;;28.29;21.22;98242.97;170906;28;1038;-49
2021/12/13 00:38:09;;;;;;;;;;;;;;;28.30;21.18;98246.47;170570;29;881;-48
2021/12/13 00:38:14;;;;;;;;;;;;;;;28.29;21.46;98234.13;171413;28;1062;-50
2021/12/13 00:38:20;;;;;;;;;;;;;;;28.30;21.37;98238.50;171324;28;825;-49
2021/12/13 00:38:25;;;;;;;;;;;;;;;28.30;21.40;98241.16;171147;28;1142;-49
2021/12/13 00:38:31;;;;;;;;;;;;;;;28.29;21.44;98240.31;171204;28;893;-49
2021/12/13 00:38:38;;;;;;;;;;;;;;;28.30;21.42;98239.34;171327;28;1057;-48
2021/12/13 00:38:46;;;;;;;;;;;;;;;28.31;21.05;98240.19;171181;28;853;-49
2021/12/13 00:38:53;;;;;;;;;;;;;;;28.31;21.48;98238.38;171254;28;1151;-49
2021/12/13 00:39:08;;;;;;;;;;;;;;;28.33;21.16;98238.25;171133;28;1044;-49
2021/12/13 00:39:15;;;;;;;;;;;;;;;28.31;21.54;98233.06;171071;28;1043;-49
2021/12/13 00:39:22;;;;;;;;;;;;;;;28.31;21.08;98234.88;170664;28;1702;-48
2021/12/13 00:39:28;;;;;;;;;;;;;;;28.33;21.14;98240.91;170248;29;886;-49
2021/12/13 00:39:36;;;;;;;;;;;;;;;28.32;21.38;98239.22;170640;29;956;-50
2021/12/13 00:39:51;;;;;;;;;;;;;;;28.31;21.31;98240.19;170293;29;881;-49
2021/12/13 00:40:17;;;;;;;;;;;;;;;28.35;21.20;98238.97;169216;29;814;-49
2021/12/13 00:40:26;;;;;;;;;;;;;;;28.35;21.50;98244.25;170016;29;739;-48
2021/12/13 00:40:38;;;;;;;;;;;;;;;28.36;21.10;98236.22;170594;29;1036;-49
2021/12/13 00:40:46;;;;;;;;;;;;;;;28.36;21.18;98238.00;170127;28;4351;-49
2021/12/13 00:40:57;;;;;;;;;;;;;;;28.35;21.42;98239.78;170634;29;873;-49
2021/12/13 00:41:03;;;;;;;;;;;;;;;28.34;21.42;98238.13;170980;28;1095;-49
2021/12/13 00:41:10;;;;;;;;;;;;;;;28.33;21.01;98240.91;171187;28;857;-49
2021/12/13 00:41:16;;;;;;;;;;;;;;;28.34;21.37;98237.28;170514;29;1059;-49
2021/12/13 00:41:23;;;;;;;;;;;;;;;28.32;21.33;98233.91;171217;28;833;-50
2021/12/13 00:41:28;;;;;;;;;;;;;;;28.33;21.14;98236.44;171153;28;1194;-49
2021/12/13 00:41:34;;;;;;;;;;;;;;;28.33;21.38;98233.78;171804;28;1177;-49
2021/12/13 00:41:39;;;;;;;;;;;;;;;28.33;21.25;98232.94;171853;28;1372;-48
2021/12/13 00:41:44;;;;;;;;;;;;;;;28.34;21.42;98242.56;171811;28;1025;-49
2021/12/13 00:41:50;;;;;;;;;;;;;;;28.34;21.39;98237.28;171852;28;1197;-50
2021/12/13 00:41:55;;;;;;;;;;;;;;;28.31;21.15;98234.88;171809;28;917;-50
2021/12/13 00:42:01;;;;;;;;;;;;;;;28.31;21.30;98240.19;171790;28;1098;-49
2021/12/13 00:42:06;;;;;;;;;;;;;;;28.31;21.40;98238.38;171858;28;1007;-49
2021/12/13 00:42:11;;;;;;;;;;;;;;;28.34;21.52;98243.41;171698;28;1047;-50
2021/12/13 00:42:16;;;;;;;;;;;;;;;28.33;21.13;98235.59;171668;28;1027;-49
2021/12/13 00:42:22;;;;;;;;;;;;;;;28.34;21.11;98248.72;172406;28;1169;-49
2021/12/13 00:42:35;;;;;;;;;;;;;;;28.34;21.10;98242.56;171712;28;872;-49
2021/12/13 00:42:42;;;;;;;;;;;;;;;28.36;21.08;98243.31;171197;28;1052;-48
2021/12/13 00:43:01;;;;;;;;;;;;;;;28.33;21.39;98241.72;171661;28;1091;-49
2021/12/13 00:43:08;;;;;;;;;;;;;;;28.38;21.15;98238.72;171124;28;956;-49
2021/12/13 00:43:30;;;;;;;;;;;;;;;28.37;21.30;98239.69;171688;28;1229;-49
2021/12/13 00:43:36;;;;;;;;;;;;;;;28.33;21.20;98241.72;171043;28;1151;-49
2021/12/13 00:43:43;;;;;;;;;;;;;;;28.35;21.32;98236.31;171840;28;889;-49
2021/12/13 00:43:55;;;;;;;;;;;;;;;28.35;21.10;98239.78;171195;28;1320;-50
2021/12/13 00:44:07;;;;;;;;;;;;;;;28.31;21.11;98243.69;171776;28;1070;-49
2021/12/13 00:44:14;;;;;;;;;;;;;;;28.34;20.99;98242.56;171797;28;818;-49
2021/12/13 00:44:20;;;;;;;;;;;;;;;28.32;21.07;98237.41;171886;28;1233;-49
2021/12/13 00:44:32;;;;;;;;;;;;;;;28.32;21.41;98240.06;171915;28;821;-49
2021/12/13 00:44:41;;;;;;;;;;;;;;;28.32;21.42;98241.88;171933;28;884;-49
2021/12/13 00:44:47;;;;;;;;;;;;;;;28.32;21.13;98244.50;171702;28;4328;-48
2021/12/13 00:44:54;;;;;;;;;;;;;;;28.30;21.43;98239.34;172504;28;1012;-49
2021/12/13 00:45:00;;;;;;;;;;;;;;;28.30;21.19;98238.50;171831;28;1031;-49
2021/12/13 00:45:07;;;;;;;;;;;;;;;28.29;21.13;98247.38;171076;28;1424;-49
2021/12/13 00:45:12;;;;;;;;;;;;;;;28.29;21.15;98247.38;170841;28;1039;-49
2021/12/13 00:45:18;;;;;;;;;;;;;;;28.30;21.21;98242.00;170573;29;1190;-48
2021/12/13 00:45:24;;;;;;;;;;;;;;;28.30;21.05;98238.50;170633;29;818;-49
2021/12/13 00:45:30;;;;;;;;;;;;;;;28.31;21.25;98240.19;170443;29;1107;-49
2021/12/13 00:45:36;;;;;;;;;;;;;;;28.30;21.48;98247.28;170441;28;1235;-49
2021/12/13 00:45:49;;;;;;;;;;;;;;;28.30;21.21;98243.81;170478;29;1028;-49
2021/12/13 00:45:56;;;;;;;;;;;;;;;28.33;21.17;98240.91;170402;29;957;-49
2021/12/13 00:46:02;;;;;;;;;;;;;;;28.30;21.07;98242.00;169501;28;1598;-47
2021/12/13 00:46:09;;;;;;;;;;;;;;;28.32;21.00;98244.50;170832;28;1241;-49
2021/12/13 00:46:14;;;;;;;;;;;;;;;28.33;21.05;98241.72;171181;28;857;-49
2021/12/13 00:46:20;;;;;;;;;;;;;;;28.31;21.08;98235.72;171264;28;1388;-49
2021/12/13 00:46:25;;;;;;;;;;;;;;;28.32;21.40;98241.88;171025;28;996;-48
2021/12/13 00:46:30;;;;;;;;;;;;;;;28.34;21.16;98234.63;171097;28;1150;-50
2021/12/13 00:46:36;;;;;;;;;;;;;;;28.32;21.42;98237.41;171291;28;1019;-49
2021/12/13 00:46:41;;;;;;;;;;;;;;;28.33;21.06;98235.59;171168;28;1111;-49
2021/12/13 00:46:47;;;;;;;;;;;;;;;28.33;21.37;98240.91;171331;28;814;-49
2021/12/13 00:46:53;;;;;;;;;;;;;;;28.30;21.11;98243.81;171196;28;1174;-49
2021/12/13 00:46:59;;;;;;;;;;;;;;;28.32;21.42;98239.22;171185;28;834;-48
2021/12/13 00:47:07;;;;;;;;;;;;;;;28.31;21.17;98241.03;171332;28;1259;-49
2021/12/13 00:47:13;;;;;;;;;;;;;;;28.36;21.20;98243.31;171066;28;1028;-49
2021/12/13 00:47:28;;;;;;;;;;;;;;;28.36;21.08;98246.81;171908;28;1201;-49
2021/12/13 00:47:33;;;;;;;;;;;;;;;28.36;21.05;98238.00;171279;28;873;-49
2021/12/13 00:47:39;;;;;;;;;;;;;;;28.35;21.33;98237.16;171114;28;1187;-50
2021/12/13 00:47:44;;;;;;;;;;;;;;;28.35;21.03;98247.75;171808;28;1031;-50
2021/12/13 00:47:49;;;;;;;;;;;;;;;28.36;21.42;98240.66;171858;28;880;-49
2021/12/13 00:47:54;;;;;;;;;;;;;;;28.35;21.06;98245.09;171803;28;1388;-49
2021/12/13 00:48:01;;;;;;;;;;;;;;;28.36;21.23;98245.97;171757;28;1144;-47
2021/12/13 00:48:06;;;;;;;;;;;;;;;28.35;21.26;98236.31;171531;28;1110;-48
2021/12/13 00:48:12;;;;;;;;;;;;;;;28.38;21.37;98245.84;171079;28;925;-49
2021/12/13 00:48:17;;;;;;;;;;;;;;;28.38;21.09;98241.38;171202;28;1161;-50
2021/12/13 00:48:22;;;;;;;;;;;;;;;28.39;21.25;98240.41;171296;28;956;-49